Time;durP1;ratioP1;P1;durP2;ratioP2;P2;SDS_P1;SDS_P2;PMS_P1;PMS_P2;Temp;Humidity;BMP_temperature;BMP_pressure;BME280_temperature;BME280_humidity;BME280_pressure;Samples;Min_cycle;Max_cycle;Signal;HPM_P1;HPM_P2
2023/06/04 00:01:57;;;;;;;2.63;1.98;;;14.90;99.90;;;;;;4952453;28;20252;-72
2023/06/04 00:04:26;;;;;;;6.18;1.90;;;14.90;99.90;;;;;;4954440;29;20033;-72
2023/06/04 00:06:51;;;;;;;4.55;1.70;;;14.90;99.90;;;;;;4952878;29;20033;-72
2023/06/04 00:09:18;;;;;;;5.20;1.98;;;14.80;99.90;;;;;;4954192;28;20098;-73
2023/06/04 00:11:45;;;;;;;2.50;1.88;;;14.80;99.90;;;;;;4954186;29;20074;-73
2023/06/04 00:14:11;;;;;;;4.32;1.90;;;14.80;99.90;;;;;;4954364;29;20383;-73
2023/06/04 00:16:37;;;;;;;4.70;1.83;;;14.80;99.90;;;;;;4954235;28;20027;-72
2023/06/04 00:19:02;;;;;;;3.47;2.00;;;14.70;99.90;;;;;;4946875;29;20027;-73
2023/06/04 00:21:28;;;;;;;5.15;1.88;;;14.70;99.90;;;;;;4946195;28;20019;-73
2023/06/04 00:23:54;;;;;;;4.63;1.70;;;14.70;99.90;;;;;;4944417;29;20066;-73
2023/06/04 00:26:20;;;;;;;5.50;1.80;;;14.70;99.90;;;;;;4954131;28;20498;-72
2023/06/04 00:28:45;;;;;;;4.60;1.80;;;14.70;99.90;;;;;;4942195;28;20585;-72
2023/06/04 00:31:12;;;;;;;3.63;1.85;;;14.60;99.90;;;;;;4952850;28;20027;-72
2023/06/04 00:33:38;;;;;;;2.92;1.67;;;14.60;99.90;;;;;;4953893;28;20035;-72
2023/06/04 00:36:04;;;;;;;3.45;1.85;;;14.60;99.90;;;;;;4941386;28;20067;-73
2023/06/04 00:38:30;;;;;;;3.53;1.77;;;14.50;99.90;;;;;;4955708;28;20027;-73
2023/06/04 00:40:55;;;;;;;3.92;1.88;;;14.50;99.90;;;;;;4957940;28;20147;-73
2023/06/04 00:43:25;;;;;;;3.92;1.77;;;14.50;99.90;;;;;;4956639;28;20055;-72
2023/06/04 00:45:52;;;;;;;4.20;2.00;;;14.50;99.90;;;;;;4956628;28;20027;-73
2023/06/04 00:48:18;;;;;;;4.28;1.98;;;14.50;99.90;;;;;;4956696;29;20031;-73
2023/06/04 00:50:44;;;;;;;3.83;1.75;;;14.50;99.90;;;;;;4956752;29;20020;-73
2023/06/04 00:53:10;;;;;;;5.78;1.98;;;14.40;99.90;;;;;;4956508;28;20015;-73
2023/06/04 00:55:36;;;;;;;5.10;1.80;;;14.40;99.90;;;;;;4955384;29;20020;-73
2023/06/04 00:58:04;;;;;;;4.03;1.83;;;14.40;99.90;;;;;;4955582;28;20038;-73
2023/06/04 01:00:30;;;;;;;3.63;1.90;;;14.40;99.90;;;;;;4953895;29;20027;-73
2023/06/04 01:03:02;;;;;;;2.53;1.67;;;14.30;99.90;;;;;;4956483;29;20023;-73
2023/06/04 01:06:06;;;;;;;4.57;1.80;;;14.30;99.90;;;;;;4956567;29;20030;-73
2023/06/04 01:08:32;;;;;;;3.45;2.10;;;14.30;99.90;;;;;;4953296;28;20107;-73
2023/06/04 01:10:57;;;;;;;5.45;1.77;;;14.30;99.90;;;;;;4952421;29;20479;-73
2023/06/04 01:13:24;;;;;;;3.30;1.95;;;14.20;99.90;;;;;;4957227;28;20022;-73
2023/06/04 01:15:50;;;;;;;4.68;1.63;;;14.20;99.90;;;;;;4957305;28;20019;-73
2023/06/04 01:18:27;;;;;;;3.45;1.80;;;14.20;99.90;;;;;;4951701;28;20023;-73
2023/06/04 01:21:00;;;;;;;4.93;1.63;;;14.20;99.90;;;;;;4943911;29;20382;-73
2023/06/04 01:23:58;;;;;;;4.63;1.55;;;14.10;99.90;;;;;;4942907;29;20391;-73
2023/06/04 01:26:26;;;;;;;3.55;2.10;;;14.10;99.90;;;;;;4950982;29;20059;-73
2023/06/04 01:28:52;;;;;;;3.38;1.75;;;14.10;99.90;;;;;;4953688;29;20039;-73
2023/06/04 01:31:22;;;;;;;4.53;1.80;;;14.10;99.90;;;;;;4951590;28;20035;-73
2023/06/04 01:34:00;;;;;;;4.80;1.80;;;14.00;99.90;;;;;;4955345;29;20516;-73
2023/06/04 01:36:25;;;;;;;4.50;1.80;;;14.00;99.90;;;;;;4955244;29;20032;-73
2023/06/04 01:38:51;;;;;;;3.33;1.77;;;14.00;99.90;;;;;;4946618;28;20116;-73
2023/06/04 01:41:17;;;;;;;5.32;2.08;;;13.90;99.90;;;;;;4951226;29;20055;-73
2023/06/04 01:43:43;;;;;;;6.35;2.30;;;13.90;99.90;;;;;;4955815;29;20035;-73
2023/06/04 01:46:08;;;;;;;3.28;1.90;;;13.90;99.90;;;;;;4952648;28;20489;-73
2023/06/04 01:48:34;;;;;;;3.90;2.15;;;13.80;99.90;;;;;;4942156;28;20667;-73
2023/06/04 01:51:00;;;;;;;3.10;1.60;;;13.80;99.90;;;;;;4954346;28;20038;-73
2023/06/04 01:53:26;;;;;;;3.92;1.85;;;13.80;99.90;;;;;;4955494;29;20015;-73
2023/06/04 01:55:52;;;;;;;5.05;1.70;;;13.70;99.90;;;;;;4952668;28;20031;-72
2023/06/04 01:58:22;;;;;;;2.63;1.88;;;13.70;99.90;;;;;;4951065;28;20040;-72
2023/06/04 02:00:49;;;;;;;2.85;1.67;;;13.70;99.90;;;;;;4954973;28;20027;-71
2023/06/04 02:03:15;;;;;;;4.38;2.00;;;13.70;99.90;;;;;;4955051;29;20035;-72
2023/06/04 02:05:44;;;;;;;3.30;1.70;;;13.60;99.90;;;;;;4955040;28;20023;-72
2023/06/04 02:08:11;;;;;;;4.65;1.88;;;13.60;99.90;;;;;;4954423;29;20023;-72
2023/06/04 02:10:36;;;;;;;4.38;1.75;;;13.60;99.90;;;;;;4954920;28;20497;-72
2023/06/04 02:13:03;;;;;;;6.88;1.80;;;13.60;99.90;;;;;;4952228;28;20032;-73
2023/06/04 02:15:30;;;;;;;2.90;1.80;;;13.60;99.90;;;;;;4951755;28;20032;-72
2023/06/04 02:18:02;;;;;;;5.22;1.88;;;13.50;99.90;;;;;;4954699;28;20035;-73
2023/06/04 02:20:28;;;;;;;2.92;1.50;;;13.50;99.90;;;;;;4949286;28;20119;-72
2023/06/04 02:22:55;;;;;;;2.20;1.85;;;13.50;99.90;;;;;;4948191;28;20114;-72
2023/06/04 02:25:21;;;;;;;2.47;1.50;;;13.50;99.90;;;;;;4954738;28;20411;-73
2023/06/04 02:27:47;;;;;;;6.20;1.75;;;13.40;99.90;;;;;;4944948;29;20035;-73
2023/06/04 02:30:12;;;;;;;5.40;1.73;;;13.40;99.90;;;;;;4946883;29;20043;-72
2023/06/04 02:32:39;;;;;;;1.88;1.67;;;13.40;99.90;;;;;;4944460;28;20043;-71
2023/06/04 02:35:05;;;;;;;5.30;1.50;;;13.40;99.90;;;;;;4947843;29;20038;-72
2023/06/04 02:37:30;;;;;;;4.82;1.80;;;13.40;99.90;;;;;;4937289;29;20472;-73
2023/06/04 02:39:56;;;;;;;2.85;1.63;;;13.40;99.90;;;;;;4954823;29;20054;-72
2023/06/04 02:42:21;;;;;;;3.35;1.83;;;13.30;99.90;;;;;;4942736;28;20111;-73
2023/06/04 02:44:47;;;;;;;5.03;2.10;;;13.30;99.90;;;;;;4953265;29;20027;-72
2023/06/04 02:47:14;;;;;;;3.15;1.65;;;13.30;99.90;;;;;;4943839;28;20036;-73
2023/06/04 02:49:40;;;;;;;4.05;1.70;;;13.30;99.90;;;;;;4952259;29;20471;-73
2023/06/04 02:52:06;;;;;;;5.03;1.77;;;13.20;99.90;;;;;;4954671;28;20055;-72
2023/06/04 02:54:31;;;;;;;3.60;1.65;;;13.20;99.90;;;;;;4950992;28;20055;-73
2023/06/04 02:56:58;;;;;;;2.83;1.63;;;13.20;99.90;;;;;;4954407;29;20094;-73
2023/06/04 02:59:23;;;;;;;3.58;1.50;;;13.20;99.90;;;;;;4948015;28;20102;-73
2023/06/04 03:01:49;;;;;;;3.92;1.60;;;13.20;99.90;;;;;;4959751;28;20061;-72
2023/06/04 03:04:15;;;;;;;3.58;1.70;;;13.10;99.90;;;;;;4957639;28;20020;-72
2023/06/04 03:06:44;;;;;;;3.47;1.88;;;13.10;99.90;;;;;;4948141;29;20027;-72
2023/06/04 03:09:11;;;;;;;3.97;1.58;;;13.10;99.90;;;;;;4946644;28;20448;-71
2023/06/04 03:11:36;;;;;;;7.15;1.63;;;13.00;99.90;;;;;;4939554;29;20102;-72
2023/06/04 03:14:02;;;;;;;4.22;1.60;;;13.00;99.90;;;;;;4954449;28;20019;-72
2023/06/04 03:16:28;;;;;;;3.35;1.50;;;12.90;99.90;;;;;;4954888;28;20082;-72
2023/06/04 03:18:53;;;;;;;3.60;1.35;;;12.90;99.90;;;;;;4942148;28;20035;-72
2023/06/04 03:21:19;;;;;;;2.58;1.50;;;12.90;99.90;;;;;;4955026;29;20019;-72
2023/06/04 03:23:45;;;;;;;2.88;1.40;;;12.90;99.90;;;;;;4940697;29;20552;-72
2023/06/04 03:26:12;;;;;;;2.15;1.40;;;12.90;99.90;;;;;;4952813;28;20510;-72
2023/06/04 03:28:38;;;;;;;3.05;1.50;;;12.90;99.90;;;;;;4953769;28;20118;-73
2023/06/04 03:31:04;;;;;;;2.75;1.27;;;12.80;99.90;;;;;;4950492;28;20106;-74
2023/06/04 03:33:30;;;;;;;3.22;1.35;;;12.80;99.90;;;;;;4950470;28;20455;-72
2023/06/04 03:35:59;;;;;;;2.47;1.50;;;12.80;99.90;;;;;;4953541;29;20030;-72
2023/06/04 03:38:28;;;;;;;1.83;1.40;;;12.80;99.90;;;;;;4945890;29;20107;-73
2023/06/04 03:40:54;;;;;;;4.18;1.50;;;12.80;99.90;;;;;;4949259;29;20109;-73
2023/06/04 03:43:20;;;;;;;3.30;1.67;;;12.70;99.90;;;;;;4953498;29;20101;-73
2023/06/04 03:45:46;;;;;;;5.93;1.30;;;12.80;99.90;;;;;;4953659;28;20027;-73
2023/06/04 03:48:11;;;;;;;3.85;1.35;;;12.80;99.90;;;;;;4953654;28;20114;-73
2023/06/04 03:50:37;;;;;;;3.35;1.50;;;12.80;99.90;;;;;;4951507;28;20245;-72
2023/06/04 03:53:07;;;;;;;2.60;1.48;;;12.70;99.90;;;;;;4950260;29;20538;-72
2023/06/04 03:55:32;;;;;;;4.00;1.70;;;12.70;99.90;;;;;;4950092;28;20032;-72
2023/06/04 03:57:58;;;;;;;3.00;1.40;;;12.70;99.90;;;;;;4948750;28;20042;-72
2023/06/04 04:00:24;;;;;;;2.40;1.60;;;12.70;99.90;;;;;;4941955;28;20024;-72
2023/06/04 04:02:50;;;;;;;4.85;1.80;;;12.70;99.90;;;;;;4953048;29;20024;-72
2023/06/04 04:05:15;;;;;;;4.43;1.70;;;12.70;99.90;;;;;;4953450;29;20023;-73
2023/06/04 04:07:41;;;;;;;4.97;1.48;;;12.70;99.90;;;;;;4947086;29;20016;-73
2023/06/04 04:10:07;;;;;;;5.10;1.50;;;12.70;99.90;;;;;;4940912;29;20028;-72
2023/06/04 04:12:33;;;;;;;3.13;1.50;;;12.70;99.90;;;;;;4952417;29;20028;-72
2023/06/04 04:14:58;;;;;;;3.75;1.50;;;12.70;99.90;;;;;;4953174;29;20386;-73
2023/06/04 04:17:25;;;;;;;3.53;1.60;;;12.70;99.90;;;;;;4947578;28;20463;-72
2023/06/04 04:19:50;;;;;;;3.45;1.50;;;12.70;99.90;;;;;;4946474;29;20106;-73
2023/06/04 04:22:17;;;;;;;2.75;1.60;;;12.70;99.90;;;;;;4953000;28;20539;-72
2023/06/04 04:24:43;;;;;;;2.95;1.50;;;12.70;99.90;;;;;;4953252;29;20023;-72
2023/06/04 04:27:13;;;;;;;2.88;1.20;;;12.80;99.90;;;;;;4950432;29;20371;-73
2023/06/04 04:29:39;;;;;;;3.72;1.45;;;12.80;99.90;;;;;;4953558;28;20023;-73
2023/06/04 04:32:16;;;;;;;4.38;1.60;;;12.80;99.90;;;;;;4953067;28;20046;-72
2023/06/04 04:34:54;;;;;;;3.88;1.50;;;12.80;99.90;;;;;;4951267;28;20033;-72
2023/06/04 04:37:24;;;;;;;1.60;1.33;;;12.90;99.90;;;;;;4942799;29;20071;-72
2023/06/04 04:39:52;;;;;;;4.93;1.35;;;12.90;99.90;;;;;;4952782;28;20079;-73
2023/06/04 04:42:19;;;;;;;2.90;1.60;;;12.90;99.90;;;;;;4943341;28;20123;-73
2023/06/04 04:44:47;;;;;;;3.05;1.30;;;12.90;99.90;;;;;;4947383;29;20545;-73
2023/06/04 04:47:15;;;;;;;3.90;1.63;;;13.00;99.90;;;;;;4943926;29;20434;-73
2023/06/04 04:49:40;;;;;;;2.88;1.38;;;12.90;99.90;;;;;;4950903;28;20048;-73
2023/06/04 04:52:06;;;;;;;5.18;1.70;;;13.00;99.90;;;;;;4952699;28;20028;-73
2023/06/04 04:54:31;;;;;;;4.25;1.38;;;13.00;99.90;;;;;;4952620;28;20031;-73
2023/06/04 04:56:57;;;;;;;2.22;1.30;;;13.10;99.90;;;;;;4948220;28;20264;-72
2023/06/04 04:59:22;;;;;;;1.77;1.20;;;13.10;99.90;;;;;;4942944;29;20095;-72
2023/06/04 05:01:48;;;;;;;5.18;1.48;;;13.10;99.90;;;;;;4944987;29;20031;-72
2023/06/04 05:04:14;;;;;;;4.03;1.30;;;13.10;99.90;;;;;;4946995;28;20034;-72
2023/06/04 05:06:39;;;;;;;2.60;1.27;;;13.20;99.90;;;;;;4946617;29;20475;-72
2023/06/04 05:09:05;;;;;;;1.90;1.30;;;13.20;99.90;;;;;;4952551;29;20034;-72
2023/06/04 05:11:31;;;;;;;5.10;1.58;;;13.20;99.90;;;;;;4952613;29;20027;-72
2023/06/04 05:13:56;;;;;;;3.97;1.38;;;13.30;99.90;;;;;;4950255;29;20075;-72
2023/06/04 05:16:22;;;;;;;3.00;1.30;;;13.30;99.90;;;;;;4945546;29;20019;-72
2023/06/04 05:18:51;;;;;;;3.78;1.42;;;13.40;99.90;;;;;;4937634;29;20483;-72
2023/06/04 05:21:17;;;;;;;2.30;1.40;;;13.40;99.90;;;;;;4944029;29;20058;-72
2023/06/04 05:23:45;;;;;;;2.70;1.40;;;13.50;99.90;;;;;;4952288;28;20043;-72
2023/06/04 05:26:10;;;;;;;2.67;1.27;;;13.50;99.90;;;;;;4954459;29;20509;-72
2023/06/04 05:28:36;;;;;;;4.68;1.50;;;13.50;99.90;;;;;;4956015;28;20055;-72
2023/06/04 05:31:02;;;;;;;5.15;1.38;;;13.60;99.90;;;;;;4953175;28;20035;-72
2023/06/04 05:33:30;;;;;;;3.63;1.20;;;13.60;99.90;;;;;;4949120;28;20024;-72
2023/06/04 05:35:57;;;;;;;2.65;1.15;;;13.60;99.90;;;;;;4950534;29;20027;-73
2023/06/04 05:38:26;;;;;;;4.68;1.20;;;13.70;99.90;;;;;;4948446;28;20115;-72
2023/06/04 05:40:53;;;;;;;3.67;1.40;;;13.80;99.90;;;;;;4950625;29;20418;-73
2023/06/04 05:43:19;;;;;;;5.82;1.20;;;13.80;99.90;;;;;;4956855;28;20049;-72
2023/06/04 05:45:45;;;;;;;3.95;1.17;;;13.90;99.90;;;;;;4952565;29;20024;-72
2023/06/04 05:48:10;;;;;;;4.25;1.20;;;13.90;99.90;;;;;;4949107;29;20083;-72
2023/06/04 05:50:36;;;;;;;2.92;1.10;;;13.90;99.90;;;;;;4943056;29;20028;-73
2023/06/04 05:53:01;;;;;;;1.95;1.10;;;14.00;99.90;;;;;;4945015;29;20459;-73
2023/06/04 05:55:28;;;;;;;6.07;1.30;;;14.10;99.90;;;;;;4943481;29;20031;-72
2023/06/04 05:57:54;;;;;;;3.45;1.20;;;14.10;99.90;;;;;;4938114;29;20507;-72
2023/06/04 06:00:21;;;;;;;3.53;1.40;;;14.10;99.90;;;;;;4956670;28;20019;-72
2023/06/04 06:02:50;;;;;;;3.55;1.23;;;14.20;99.90;;;;;;4956919;28;20039;-72
2023/06/04 06:05:17;;;;;;;4.05;1.42;;;14.20;99.90;;;;;;4956652;28;20031;-72
2023/06/04 06:07:44;;;;;;;5.85;1.55;;;14.30;99.90;;;;;;4956957;28;20031;-72
2023/06/04 06:10:09;;;;;;;3.42;1.30;;;14.30;99.90;;;;;;4955890;29;20323;-72
2023/06/04 06:12:35;;;;;;;3.33;1.35;;;14.40;99.90;;;;;;4949820;28;20027;-73
2023/06/04 06:15:01;;;;;;;5.13;1.45;;;14.50;99.90;;;;;;4956206;29;20106;-73
2023/06/04 06:17:27;;;;;;;4.07;1.50;;;14.60;99.90;;;;;;4947916;28;20475;-72
2023/06/04 06:19:53;;;;;;;8.05;1.52;;;14.60;99.90;;;;;;4954103;29;20706;-73
2023/06/04 06:22:18;;;;;;;3.30;1.35;;;14.60;99.90;;;;;;4954899;29;20284;-72
2023/06/04 06:24:48;;;;;;;7.50;1.50;;;14.80;99.90;;;;;;4948773;29;20031;-72
2023/06/04 06:27:59;;;;;;;4.20;1.40;;;14.80;99.90;;;;;;4948171;29;20027;-74
2023/06/04 06:30:00;;;;;;;5.28;1.48;;;14.90;99.90;;;;;;4948461;28;20503;-74
2023/06/04 06:32:25;;;;;;;1.77;1.13;;;14.90;99.90;;;;;;4943741;29;20047;-72
2023/06/04 06:34:51;;;;;;;4.38;1.25;;;15.00;99.90;;;;;;4944647;29;20428;-73
2023/06/04 06:37:18;;;;;;;3.65;1.40;;;15.10;99.90;;;;;;4938962;28;20038;-72
2023/06/04 06:39:43;;;;;;;3.10;1.20;;;15.20;99.90;;;;;;4949186;29;20027;-73
2023/06/04 06:42:09;;;;;;;2.85;1.25;;;15.30;99.90;;;;;;4949489;29;20042;-73
2023/06/04 06:44:35;;;;;;;4.50;1.33;;;15.40;99.30;;;;;;4952659;28;20039;-73
2023/06/04 06:47:00;;;;;;;3.83;1.10;;;15.50;99.10;;;;;;4944598;29;20067;-73
2023/06/04 06:49:26;;;;;;;2.20;1.13;;;15.60;98.90;;;;;;4951043;29;20016;-73
2023/06/04 06:51:51;;;;;;;4.10;1.20;;;15.70;98.50;;;;;;4940218;29;20383;-72
2023/06/04 06:54:21;;;;;;;4.75;1.30;;;15.90;98.00;;;;;;4946328;29;20517;-73
2023/06/04 06:56:48;;;;;;;4.45;1.20;;;16.00;97.50;;;;;;4951431;29;20031;-73
2023/06/04 06:59:14;;;;;;;3.05;1.30;;;16.10;97.30;;;;;;4947937;28;20450;-73
2023/06/04 07:01:39;;;;;;;4.70;1.17;;;16.30;97.10;;;;;;4951089;29;20027;-76
2023/06/04 07:04:06;;;;;;;3.60;1.50;;;16.40;96.60;;;;;;4947403;28;20020;-74
2023/06/04 07:06:32;;;;;;;3.20;1.20;;;16.50;95.80;;;;;;4947146;29;20110;-75
2023/06/04 07:08:58;;;;;;;3.88;1.25;;;16.70;95.20;;;;;;4955942;28;20039;-75
2023/06/04 07:11:25;;;;;;;4.75;1.27;;;16.80;94.40;;;;;;4952747;29;20368;-75
2023/06/04 07:13:51;;;;;;;3.35;1.33;;;16.90;93.80;;;;;;4950441;29;20038;-75
2023/06/04 07:16:17;;;;;;;2.03;1.27;;;17.10;93.80;;;;;;4955571;29;20027;-75
2023/06/04 07:18:43;;;;;;;4.32;1.30;;;17.20;93.20;;;;;;4956157;29;20039;-75
2023/06/04 07:21:09;;;;;;;2.22;1.38;;;17.30;92.80;;;;;;4955884;28;20052;-75
2023/06/04 07:23:34;;;;;;;3.58;1.38;;;17.50;92.60;;;;;;4954182;29;20028;-75
2023/06/04 07:26:01;;;;;;;5.03;1.05;;;17.60;91.40;;;;;;4961649;29;20527;-76
2023/06/04 07:28:27;;;;;;;5.47;1.55;;;17.80;91.00;;;;;;4944778;29;20023;-75
2023/06/04 07:30:53;;;;;;;2.25;1.02;;;17.90;90.60;;;;;;4956272;29;20030;-75
2023/06/04 07:33:19;;;;;;;1.98;1.10;;;18.00;90.20;;;;;;4955887;28;20030;-75
2023/06/04 07:35:44;;;;;;;4.82;1.10;;;18.10;90.00;;;;;;4955500;28;20034;-75
2023/06/04 07:38:10;;;;;;;3.08;1.20;;;18.30;89.80;;;;;;4955278;28;20031;-75
2023/06/04 07:40:36;;;;;;;3.25;1.23;;;18.50;89.00;;;;;;4955586;28;20055;-75
2023/06/04 07:43:01;;;;;;;5.63;1.40;;;18.60;87.70;;;;;;4953033;28;20102;-75
2023/06/04 07:45:29;;;;;;;3.60;1.17;;;18.80;85.90;;;;;;4954345;28;20058;-76
2023/06/04 07:47:55;;;;;;;4.18;1.50;;;18.80;85.10;;;;;;4953821;28;20027;-77
2023/06/04 07:50:21;;;;;;;4.53;1.42;;;18.90;84.20;;;;;;4949679;29;20031;-76
2023/06/04 07:52:46;;;;;;;3.80;1.55;;;19.00;84.50;;;;;;4943963;28;20031;-75
2023/06/04 07:55:16;;;;;;;5.32;1.27;;;19.20;84.40;;;;;;4953699;29;20027;-75
2023/06/04 07:57:42;;;;;;;3.75;1.40;;;19.30;83.70;;;;;;4956489;28;20082;-76
2023/06/04 08:00:14;;;;;;;4.50;1.05;;;19.40;82.40;;;;;;4953645;29;20023;-75
2023/06/04 08:02:40;;;;;;;4.63;1.58;;;19.40;82.90;;;;;;4946183;28;20036;-75
2023/06/04 08:05:06;;;;;;;4.95;1.40;;;19.50;82.70;;;;;;4955661;28;20378;-75
2023/06/04 08:07:31;;;;;;;7.65;1.55;;;19.60;82.30;;;;;;4948873;29;20070;-75
2023/06/04 08:09:57;;;;;;;5.35;1.45;;;19.70;82.10;;;;;;4955083;28;20023;-75
2023/06/04 08:12:23;;;;;;;6.13;1.40;;;19.80;82.20;;;;;;4952215;28;20026;-75
2023/06/04 08:14:50;;;;;;;5.07;1.48;;;19.90;82.00;;;;;;4948931;29;20042;-75
2023/06/04 08:17:16;;;;;;;4.03;1.63;;;20.10;81.40;;;;;;4954459;28;20030;-75
2023/06/04 08:19:41;;;;;;;5.55;1.30;;;20.30;80.20;;;;;;4953665;29;20475;-75
2023/06/04 08:22:09;;;;;;;4.57;1.63;;;20.40;79.40;;;;;;4953249;28;20087;-76
2023/06/04 08:24:34;;;;;;;2.97;1.38;;;20.40;78.30;;;;;;4950845;29;20518;-75
2023/06/04 08:27:00;;;;;;;3.75;1.30;;;20.50;77.00;;;;;;4953350;28;20028;-75
2023/06/04 08:29:26;;;;;;;3.72;1.33;;;20.50;75.90;;;;;;4952049;29;20074;-76
2023/06/04 08:31:51;;;;;;;4.22;1.50;;;20.60;75.70;;;;;;4947438;29;20023;-76
2023/06/04 08:34:17;;;;;;;3.47;1.33;;;20.70;75.30;;;;;;4943277;28;20034;-75
2023/06/04 08:36:43;;;;;;;5.32;1.48;;;20.80;74.80;;;;;;4937674;29;20020;-75
2023/06/04 08:39:09;;;;;;;3.85;1.40;;;20.90;74.70;;;;;;4946209;29;20036;-75
2023/06/04 08:41:47;;;;;;;5.55;1.25;;;21.10;74.70;;;;;;4939715;29;20490;-75
2023/06/04 08:44:14;;;;;;;3.60;1.42;;;21.30;74.70;;;;;;4941927;29;20074;-77
2023/06/04 08:46:40;;;;;;;3.35;1.52;;;21.40;74.30;;;;;;4947799;29;20019;-76
2023/06/04 08:49:06;;;;;;;5.60;1.70;;;21.40;71.10;;;;;;4947125;29;20027;-75
2023/06/04 08:51:33;;;;;;;5.20;1.20;;;21.40;71.20;;;;;;4945322;28;20027;-74
2023/06/04 08:54:00;;;;;;;3.45;1.23;;;21.40;71.40;;;;;;4949679;28;20024;-76
2023/06/04 08:56:28;;;;;;;9.23;1.60;;;21.50;71.60;;;;;;4951594;28;20078;-76
2023/06/04 08:58:59;;;;;;;7.43;1.50;;;21.50;70.60;;;;;;4948111;28;20039;-76
2023/06/04 09:01:24;;;;;;;6.70;1.63;;;21.50;69.60;;;;;;4951037;28;20020;-77
2023/06/04 09:03:50;;;;;;;6.80;1.20;;;21.50;69.80;;;;;;4948939;28;20027;-74
2023/06/04 09:06:16;;;;;;;4.85;1.45;;;21.50;69.90;;;;;;4951113;29;20035;-74
2023/06/04 09:08:44;;;;;;;3.45;1.25;;;21.60;70.40;;;;;;4955973;29;20166;-74
2023/06/04 09:11:13;;;;;;;3.15;1.50;;;21.70;68.60;;;;;;4954788;29;20015;-75
2023/06/04 09:13:40;;;;;;;3.00;1.40;;;21.70;66.90;;;;;;4952357;28;20114;-75
2023/06/04 09:16:06;;;;;;;3.17;1.42;;;21.80;66.50;;;;;;4956330;28;20027;-75
2023/06/04 09:18:32;;;;;;;3.42;1.42;;;21.90;65.50;;;;;;4953616;28;20094;-75
2023/06/04 09:21:08;;;;;;;5.22;1.50;;;21.90;65.60;;;;;;4948816;28;20174;-75
2023/06/04 09:23:44;;;;;;;2.83;1.30;;;22.10;65.60;;;;;;4950739;28;20052;-74
2023/06/04 09:26:10;;;;;;;5.75;1.40;;;22.20;64.50;;;;;;4949199;28;20043;-74
2023/06/04 09:28:40;;;;;;;4.30;1.40;;;22.30;63.50;;;;;;4955293;28;20031;-74
2023/06/04 09:31:08;;;;;;;3.78;1.50;;;22.40;64.10;;;;;;4953955;28;20482;-74
2023/06/04 09:33:50;;;;;;;6.43;1.65;;;22.50;62.90;;;;;;4956228;28;20022;-75
2023/06/04 09:36:16;;;;;;;3.35;1.33;;;22.60;62.30;;;;;;4953022;28;20426;-75
2023/06/04 09:38:43;;;;;;;5.10;1.33;;;22.60;61.90;;;;;;4958475;28;20370;-80
2023/06/04 09:41:12;;;;;;;3.90;1.63;;;22.60;62.30;;;;;;4963154;28;20047;-79
2023/06/04 09:43:38;;;;;;;3.92;1.50;;;22.60;61.10;;;;;;4965004;28;20094;-79
2023/06/04 09:46:17;;;;;;;6.80;1.60;;;22.50;61.40;;;;;;4962713;29;20019;-79
2023/06/04 09:48:44;;;;;;;7.22;1.50;;;22.60;61.90;;;;;;4952795;28;20027;-77
2023/06/04 09:51:19;;;;;;;4.95;1.60;;;22.80;62.50;;;;;;4945788;29;20047;-81
2023/06/04 09:54:05;;;;;;;3.00;1.50;;;23.00;61.40;;;;;;4964500;28;20032;-78
2023/06/04 09:56:40;;;;;;;3.65;1.25;;;23.10;59.40;;;;;;4955497;28;20047;-77
2023/06/04 09:59:07;;;;;;;5.07;1.40;;;23.00;60.50;;;;;;4951491;29;20038;-76
2023/06/04 10:01:36;;;;;;;5.38;1.30;;;22.90;59.60;;;;;;4958087;28;20023;-76
2023/06/04 10:04:03;;;;;;;8.38;1.90;;;22.80;60.00;;;;;;4953218;28;20031;-76
2023/06/04 10:06:35;;;;;;;3.15;1.48;;;22.80;60.60;;;;;;4954788;29;20024;-76
2023/06/04 10:09:08;;;;;;;3.63;1.30;;;22.90;60.60;;;;;;4950635;28;20027;-77
2023/06/04 10:11:41;;;;;;;2.75;1.42;;;22.90;60.00;;;;;;4951472;28;20027;-77
2023/06/04 10:14:39;;;;;;;6.00;1.52;;;22.80;60.30;;;;;;4953927;29;20046;-77
2023/06/04 10:17:07;;;;;;;4.10;1.42;;;22.80;60.50;;;;;;4955923;28;20036;-76
2023/06/04 10:19:34;;;;;;;7.30;1.60;;;22.90;60.00;;;;;;4956997;28;20027;-77
2023/06/04 10:22:01;;;;;;;2.13;1.20;;;23.00;59.80;;;;;;4955377;28;20102;-75
2023/06/04 10:24:27;;;;;;;4.47;1.50;;;23.20;59.20;;;;;;4955256;29;20023;-76
2023/06/04 10:26:55;;;;;;;3.40;1.50;;;23.40;58.40;;;;;;4953623;29;20106;-76
2023/06/04 10:29:23;;;;;;;5.05;1.38;;;23.40;58.70;;;;;;4949551;29;20019;-76
2023/06/04 10:31:53;;;;;;;3.25;1.50;;;23.50;58.20;;;;;;4955462;29;20035;-76
2023/06/04 10:34:18;;;;;;;3.00;1.30;;;23.60;58.30;;;;;;4953009;28;20027;-77
2023/06/04 10:36:45;;;;;;;6.53;1.30;;;23.80;57.90;;;;;;4950252;29;20102;-78
2023/06/04 10:39:11;;;;;;;5.00;1.67;;;23.80;57.20;;;;;;4951731;28;20547;-78
2023/06/04 10:41:37;;;;;;;3.42;1.40;;;23.80;56.50;;;;;;4958174;28;20070;-77
2023/06/04 10:44:03;;;;;;;3.05;1.30;;;23.70;57.00;;;;;;4954153;28;20066;-76
2023/06/04 10:46:40;;;;;;;4.18;1.38;;;23.80;57.00;;;;;;4954253;29;20031;-76
2023/06/04 10:49:06;;;;;;;6.15;1.50;;;23.90;56.40;;;;;;4955503;28;20415;-77
2023/06/04 10:51:33;;;;;;;6.35;1.40;;;23.90;55.90;;;;;;4948174;29;20023;-78
2023/06/04 10:54:01;;;;;;;6.38;1.48;;;23.90;55.90;;;;;;4956818;29;20028;-78
2023/06/04 10:56:28;;;;;;;4.25;1.25;;;23.90;55.40;;;;;;4957144;29;20022;-78
2023/06/04 10:58:53;;;;;;;4.30;1.23;;;23.90;55.20;;;;;;4955665;28;20035;-76
2023/06/04 11:01:26;;;;;;;3.08;1.55;;;23.80;54.70;;;;;;4955865;29;20029;-77
2023/06/04 11:03:52;;;;;;;2.53;1.55;;;23.80;54.60;;;;;;4955923;28;20042;-78
2023/06/04 11:06:18;;;;;;;4.22;1.38;;;23.80;54.90;;;;;;4955458;28;20031;-77
2023/06/04 11:08:44;;;;;;;4.15;1.60;;;23.90;54.80;;;;;;4955828;29;20031;-77
2023/06/04 11:11:17;;;;;;;4.05;1.33;;;23.90;54.90;;;;;;4956639;28;20023;-76
2023/06/04 11:13:43;;;;;;;5.07;1.60;;;24.10;55.20;;;;;;4955959;28;20073;-76
2023/06/04 11:16:19;;;;;;;5.38;1.58;;;24.30;54.60;;;;;;4955364;28;20028;-74
2023/06/04 11:18:55;;;;;;;4.15;1.42;;;24.50;53.90;;;;;;4950466;28;20035;-76
2023/06/04 11:21:21;;;;;;;2.90;1.50;;;24.50;54.20;;;;;;4954861;28;20118;-77
2023/06/04 11:23:47;;;;;;;3.67;1.42;;;24.60;54.10;;;;;;4951558;29;20027;-75
2023/06/04 11:26:13;;;;;;;6.88;1.83;;;24.70;53.60;;;;;;4954906;28;20107;-77
2023/06/04 11:28:40;;;;;;;5.22;1.70;;;24.70;53.10;;;;;;4951312;29;20027;-76
2023/06/04 11:31:05;;;;;;;4.47;1.60;;;24.80;53.10;;;;;;4949432;28;20027;-76
2023/06/04 11:33:47;;;;;;;5.38;1.60;;;24.90;51.70;;;;;;4949072;28;20035;-76
2023/06/04 11:36:32;;;;;;;4.57;1.48;;;25.00;51.90;;;;;;4945958;29;20024;-77
2023/06/04 11:39:02;;;;;;;4.63;1.43;;;25.20;51.70;;;;;;4950453;29;20033;-76
2023/06/04 11:41:31;;;;;;;2.85;1.45;;;25.30;51.10;;;;;;4954819;28;20374;-76
2023/06/04 11:44:00;;;;;;;5.38;1.60;;;25.50;50.30;;;;;;4957894;28;20117;-76
2023/06/04 11:46:26;;;;;;;3.40;1.35;;;25.50;49.80;;;;;;4939801;29;20055;-77
2023/06/04 11:48:52;;;;;;;4.80;1.52;;;25.50;50.40;;;;;;4952078;29;20443;-77
2023/06/04 11:51:20;;;;;;;2.58;1.38;;;25.50;51.10;;;;;;4952895;29;20039;-77
2023/06/04 11:53:46;;;;;;;4.82;1.42;;;25.60;50.70;;;;;;4952802;29;20567;-77
2023/06/04 11:56:12;;;;;;;3.75;1.50;;;25.60;50.20;;;;;;4952382;29;20098;-76
2023/06/04 11:58:40;;;;;;;2.88;1.27;;;25.70;49.60;;;;;;4939630;29;20039;-77
2023/06/04 12:01:07;;;;;;;2.10;1.27;;;25.90;49.70;;;;;;4956218;28;20034;-77
2023/06/04 12:03:37;;;;;;;5.32;1.67;;;26.00;48.70;;;;;;4943365;28;20511;-78
2023/06/04 12:06:15;;;;;;;3.03;1.55;;;26.00;48.50;;;;;;4954477;28;20553;-77
2023/06/04 12:08:51;;;;;;;3.85;1.48;;;25.90;48.10;;;;;;4950120;29;20035;-76
2023/06/04 12:11:27;;;;;;;3.45;1.50;;;25.60;48.60;;;;;;4954550;29;20106;-76
2023/06/04 12:13:56;;;;;;;3.33;1.60;;;25.60;48.20;;;;;;4954838;28;20028;-77
2023/06/04 12:16:22;;;;;;;3.58;1.63;;;25.70;47.50;;;;;;4941322;28;20082;-77
2023/06/04 12:18:50;;;;;;;5.13;1.58;;;25.80;47.50;;;;;;4953332;29;20091;-77
2023/06/04 12:21:26;;;;;;;3.35;1.38;;;25.90;47.00;;;;;;4954144;29;20030;-77
2023/06/04 12:23:53;;;;;;;3.80;1.52;;;26.10;47.00;;;;;;4951516;29;20609;-77
2023/06/04 12:26:28;;;;;;;4.40;1.75;;;26.20;46.60;;;;;;4954401;28;20475;-77
2023/06/04 12:29:01;;;;;;;3.45;1.65;;;26.20;46.10;;;;;;4951087;28;20031;-76
2023/06/04 12:31:31;;;;;;;5.18;1.40;;;26.10;46.20;;;;;;4941450;28;20063;-76
2023/06/04 12:33:59;;;;;;;6.05;1.58;;;26.10;47.20;;;;;;4955523;28;20054;-76
2023/06/04 12:36:24;;;;;;;4.40;1.33;;;26.20;46.50;;;;;;4952269;28;20038;-76
2023/06/04 12:38:50;;;;;;;3.33;1.40;;;26.20;46.40;;;;;;4958206;29;20039;-76
2023/06/04 12:41:16;;;;;;;3.97;1.70;;;26.20;46.20;;;;;;4957046;28;20078;-76
2023/06/04 12:43:41;;;;;;;3.42;1.73;;;26.00;46.10;;;;;;4958407;29;20418;-76
2023/06/04 12:46:07;;;;;;;4.93;1.50;;;25.90;46.90;;;;;;4957882;28;20544;-77
2023/06/04 12:48:33;;;;;;;4.90;1.60;;;25.90;46.50;;;;;;4947005;29;20091;-76
2023/06/04 12:50:58;;;;;;;3.83;1.60;;;25.90;46.50;;;;;;4944676;29;20023;-75